sensor_id;sensor_type;location;lat;lon;timestamp;pressure;altitude;pressure_sealevel;temperature;humidity
29733;BME280;16643;43.158;25.302;2023-04-06T00:01:37;97795.50;;;2.92;100.00
29733;BME280;16643;43.158;25.302;2023-04-06T00:04:02;97773.28;;;2.84;100.00
29733;BME280;16643;43.158;25.302;2023-04-06T00:06:28;97781.84;;;2.84;100.00
29733;BME280;16643;43.158;25.302;2023-04-06T00:08:54;97772.41;;;2.89;100.00
29733;BME280;16643;43.158;25.302;2023-04-06T00:11:19;97758.78;;;2.78;100.00
29733;BME280;16643;43.158;25.302;2023-04-06T00:13:45;97777.56;;;2.89;99.19
29733;BME280;16643;43.158;25.302;2023-04-06T00:16:11;97775.84;;;2.87;99.20
29733;BME280;16643;43.158;25.302;2023-04-06T00:18:36;97761.31;;;2.86;99.67
29733;BME280;16643;43.158;25.302;2023-04-06T00:21:03;97755.41;;;2.72;99.37
29733;BME280;16643;43.158;25.302;2023-04-06T00:23:28;97757.91;;;2.82;98.91
29733;BME280;16643;43.158;25.302;2023-04-06T00:25:54;97756.22;;;2.80;98.91
29733;BME280;16643;43.158;25.302;2023-04-06T00:28:20;97766.44;;;2.83;99.32
29733;BME280;16643;43.158;25.302;2023-04-06T00:30:51;97763.94;;;2.80;98.79
29733;BME280;16643;43.158;25.302;2023-04-06T00:33:19;97732.34;;;2.67;99.04
29733;BME280;16643;43.158;25.302;2023-04-06T00:35:45;97722.09;;;2.64;99.29
29733;BME280;16643;43.158;25.302;2023-04-06T00:38:11;97747.69;;;2.78;99.75
29733;BME280;16643;43.158;25.302;2023-04-06T00:40:37;97745.97;;;2.78;99.62
29733;BME280;16643;43.158;25.302;2023-04-06T00:43:05;97719.59;;;2.55;99.48
29733;BME280;16643;43.158;25.302;2023-04-06T00:45:31;97726.38;;;2.61;99.39
29733;BME280;16643;43.158;25.302;2023-04-06T00:47:57;97723.00;;;2.59;99.81
29733;BME280;16643;43.158;25.302;2023-04-06T00:50:23;97724.72;;;2.60;99.54
29733;BME280;16643;43.158;25.302;2023-04-06T00:52:49;97716.19;;;2.51;99.57
29733;BME280;16643;43.158;25.302;2023-04-06T00:55:14;97732.41;;;2.50;99.61
29733;BME280;16643;43.158;25.302;2023-04-06T00:57:40;75585.28;;;-142.82;99.61
29733;BME280;16643;43.158;25.302;2023-04-06T01:00:08;97714.44;;;2.58;99.46
29733;BME280;16643;43.158;25.302;2023-04-06T01:02:33;97715.34;;;2.48;99.90
29733;BME280;16643;43.158;25.302;2023-04-06T01:04:59;97700.84;;;2.45;100.00
29733;BME280;16643;43.158;25.302;2023-04-06T01:07:25;97707.63;;;2.54;100.00
29733;BME280;16643;43.158;25.302;2023-04-06T01:09:53;97693.16;;;2.41;100.00
29733;BME280;16643;43.158;25.302;2023-04-06T01:12:19;97723.00;;;2.55;100.00
29733;BME280;16643;43.158;25.302;2023-04-06T01:14:44;97711.03;;;2.51;100.00
29733;BME280;16643;43.158;25.302;2023-04-06T01:17:10;97716.19;;;2.51;100.00
29733;BME280;16643;43.158;25.302;2023-04-06T01:19:36;97721.28;;;2.56;100.00
29733;BME280;16643;43.158;25.302;2023-04-06T01:22:02;97713.59;;;2.58;100.00
29733;BME280;16643;43.158;25.302;2023-04-06T01:24:28;97717.03;;;2.53;100.00
29733;BME280;16643;43.158;25.302;2023-04-06T01:26:53;97671.69;;;2.59;100.00
29733;BME280;16643;43.158;25.302;2023-04-06T01:29:19;97685.47;;;2.39;100.00
29733;BME280;16643;43.158;25.302;2023-04-06T01:31:45;97692.22;;;2.54;100.00
29733;BME280;16643;43.158;25.302;2023-04-06T01:34:10;97694.84;;;2.45;100.00
29733;BME280;16643;43.158;25.302;2023-04-06T01:36:36;97697.41;;;2.43;100.00
29733;BME280;16643;43.158;25.302;2023-04-06T01:39:02;97709.31;;;2.60;100.00
29733;BME280;16643;43.158;25.302;2023-04-06T01:41:28;97686.25;;;2.57;100.00
29733;BME280;16643;43.158;25.302;2023-04-06T01:43:54;97699.84;;;2.71;100.00
29733;BME280;16643;43.158;25.302;2023-04-06T01:46:20;97674.22;;;2.65;100.00
29733;BME280;16643;43.158;25.302;2023-04-06T01:48:46;97629.03;;;2.45;100.00
29733;BME280;16643;43.158;25.302;2023-04-06T01:51:11;97667.38;;;2.68;100.00
29733;BME280;16643;43.158;25.302;2023-04-06T01:53:37;97714.31;;;2.81;100.00
29733;BME280;16643;43.158;25.302;2023-04-06T01:56:03;97675.88;;;2.73;100.00
29733;BME280;16643;43.158;25.302;2023-04-06T01:58:28;97686.03;;;2.93;100.00
29733;BME280;16643;43.158;25.302;2023-04-06T02:00:54;97675.75;;;2.93;100.00
29733;BME280;16643;43.158;25.302;2023-04-06T02:03:19;97698.81;;;2.96;100.00
29733;BME280;16643;43.158;25.302;2023-04-06T02:05:45;97666.31;;;2.93;100.00
29733;BME280;16643;43.158;25.302;2023-04-06T02:08:11;97674.84;;;3.00;100.00
29733;BME280;16643;43.158;25.302;2023-04-06T02:10:36;97674.81;;;3.02;100.00
29733;BME280;16643;43.158;25.302;2023-04-06T02:13:02;97670.63;;;2.88;100.00
29733;BME280;16643;43.158;25.302;2023-04-06T02:15:27;97669.69;;;3.00;100.00
29733;BME280;16643;43.158;25.302;2023-04-06T02:17:53;97683.41;;;2.98;99.78
29733;BME280;16643;43.158;25.302;2023-04-06T02:20:19;97670.50;;;3.05;100.00
29733;BME280;16643;43.158;25.302;2023-04-06T02:22:45;97680.72;;;3.11;99.89
29733;BME280;16643;43.158;25.302;2023-04-06T02:25:11;97671.41;;;3.04;99.21
29733;BME280;16643;43.158;25.302;2023-04-06T02:27:40;97661.97;;;3.05;99.39
29733;BME280;16643;43.158;25.302;2023-04-06T02:30:06;97661.97;;;-142.82;100.00
29733;BME280;16643;43.158;25.302;2023-04-06T02:32:32;97653.38;;;3.07;100.00
29733;BME280;16643;43.158;25.302;2023-04-06T02:34:57;97654.28;;;3.05;99.49
29733;BME280;16643;43.158;25.302;2023-04-06T02:37:23;97660.22;;;3.05;99.36
29733;BME280;16643;43.158;25.302;2023-04-06T02:39:49;97657.63;;;3.11;98.39
29733;BME280;16643;43.158;25.302;2023-04-06T02:42:18;97660.19;;;3.11;98.61
29733;BME280;16643;43.158;25.302;2023-04-06T02:44:44;97658.47;;;3.15;98.47
29733;BME280;16643;43.158;25.302;2023-04-06T02:47:09;97669.53;;;3.18;97.85
29733;BME280;16643;43.158;25.302;2023-04-06T02:49:36;97637.97;;;3.10;96.92
29733;BME280;16643;43.158;25.302;2023-04-06T02:52:02;97663.59;;;3.15;97.51
29733;BME280;16643;43.158;25.302;2023-04-06T02:54:27;97657.63;;;3.14;97.39
29733;BME280;16643;43.158;25.302;2023-04-06T02:56:53;97667.78;;;3.25;96.82
29733;BME280;16643;43.158;25.302;2023-04-06T02:59:19;97655.06;;;3.11;96.71
29733;BME280;16643;43.158;25.302;2023-04-06T03:01:44;97672.97;;;3.17;97.25
29733;BME280;16643;43.158;25.302;2023-04-06T03:04:10;97648.16;;;3.18;97.03
29733;BME280;16643;43.158;25.302;2023-04-06T03:06:36;97656.69;;;3.21;97.32
29733;BME280;16643;43.158;25.302;2023-04-06T03:09:02;97649.94;;;3.10;96.82
29733;BME280;16643;43.158;25.302;2023-04-06T03:11:28;97652.47;;;3.14;96.91
29733;BME280;16643;43.158;25.302;2023-04-06T03:13:53;97648.25;;;3.07;96.38
29733;BME280;16643;43.158;25.302;2023-04-06T03:16:19;97638.03;;;3.01;96.94
29733;BME280;16643;43.158;25.302;2023-04-06T03:18:44;97652.50;;;3.13;97.94
29733;BME280;16643;43.158;25.302;2023-04-06T03:21:12;97662.75;;;3.13;97.43
29733;BME280;16643;43.158;25.302;2023-04-06T03:23:40;97661.91;;;3.12;97.99
29733;BME280;16643;43.158;25.302;2023-04-06T03:26:06;97670.44;;;3.16;97.06
29733;BME280;16643;43.158;25.302;2023-04-06T03:28:31;97678.16;;;3.13;96.74
29733;BME280;16643;43.158;25.302;2023-04-06T03:30:57;97659.34;;;3.12;98.01
29733;BME280;16643;43.158;25.302;2023-04-06T03:33:23;97652.53;;;3.07;98.26
29733;BME280;16643;43.158;25.302;2023-04-06T03:35:48;97686.66;;;3.19;97.95
29733;BME280;16643;43.158;25.302;2023-04-06T03:38:14;97708.03;;;3.21;98.65
29733;BME280;16643;43.158;25.302;2023-04-06T03:40:39;97627.03;;;2.85;98.03
29733;BME280;16643;43.158;25.302;2023-04-06T03:43:05;97657.66;;;3.05;97.59
29733;BME280;16643;43.158;25.302;2023-04-06T03:45:31;97665.31;;;3.13;97.49
29733;BME280;16643;43.158;25.302;2023-04-06T03:47:56;97663.56;;;3.16;98.35
29733;BME280;16643;43.158;25.302;2023-04-06T03:50:22;97662.69;;;3.19;98.72
29733;BME280;16643;43.158;25.302;2023-04-06T03:52:48;97666.13;;;3.18;98.48
29733;BME280;16643;43.158;25.302;2023-04-06T03:55:13;97657.63;;;3.11;98.42
29733;BME280;16643;43.158;25.302;2023-04-06T03:57:39;97661.88;;;3.15;98.40
29733;BME280;16643;43.158;25.302;2023-04-06T04:00:06;97693.50;;;3.22;98.11
29733;BME280;16643;43.158;25.302;2023-04-06T04:02:32;97667.81;;;3.20;98.33
29733;BME280;16643;43.158;25.302;2023-04-06T04:04:57;97680.63;;;3.23;99.20
29733;BME280;16643;43.158;25.302;2023-04-06T04:07:23;97674.66;;;3.20;98.47
29733;BME280;16643;43.158;25.302;2023-04-06T04:09:48;97684.09;;;3.16;99.60
29733;BME280;16643;43.158;25.302;2023-04-06T04:12:14;97680.66;;;3.22;99.50
29733;BME280;16643;43.158;25.302;2023-04-06T04:14:42;97675.56;;;3.16;98.53
29733;BME280;16643;43.158;25.302;2023-04-06T04:17:08;97697.78;;;3.17;98.69
29733;BME280;16643;43.158;25.302;2023-04-06T04:19:33;97689.19;;;3.25;99.65
29733;BME280;16643;43.158;25.302;2023-04-06T04:21:59;97671.22;;;3.22;99.45
29733;BME280;16643;43.158;25.302;2023-04-06T04:24:24;97666.19;;;3.13;99.98
29733;BME280;16643;43.158;25.302;2023-04-06T04:26:50;97674.69;;;3.18;99.48
29733;BME280;16643;43.158;25.302;2023-04-06T04:29:16;97675.53;;;3.20;99.52
29733;BME280;16643;43.158;25.302;2023-04-06T04:31:42;97682.38;;;3.21;99.54
29733;BME280;16643;43.158;25.302;2023-04-06T04:34:07;97668.66;;;3.22;100.00
29733;BME280;16643;43.158;25.302;2023-04-06T04:36:33;97684.06;;;3.24;99.96
29733;BME280;16643;43.158;25.302;2023-04-06T04:38:58;97673.81;;;3.21;98.91
29733;BME280;16643;43.158;25.302;2023-04-06T04:41:26;97677.19;;;3.26;99.52
29733;BME280;16643;43.158;25.302;2023-04-06T04:43:52;97691.69;;;3.30;98.83
29733;BME280;16643;43.158;25.302;2023-04-06T04:46:17;97669.50;;;3.26;98.08
29733;BME280;16643;43.158;25.302;2023-04-06T04:48:43;97666.97;;;3.21;98.43
29733;BME280;16643;43.158;25.302;2023-04-06T04:51:09;97693.38;;;3.37;99.15
29733;BME280;16643;43.158;25.302;2023-04-06T04:53:34;97677.97;;;3.34;97.87
29733;BME280;16643;43.158;25.302;2023-04-06T04:56:00;97686.47;;;3.42;97.91
29733;BME280;16643;43.158;25.302;2023-04-06T04:58:25;97675.44;;;3.31;97.73
29733;BME280;16643;43.158;25.302;2023-04-06T05:00:51;97683.97;;;3.33;97.74
29733;BME280;16643;43.158;25.302;2023-04-06T05:03:22;97683.09;;;3.36;97.63
29733;BME280;16643;43.158;25.302;2023-04-06T05:05:49;97689.97;;;3.32;98.00
29733;BME280;16643;43.158;25.302;2023-04-06T05:08:15;97687.31;;;3.41;98.45
29733;BME280;16643;43.158;25.302;2023-04-06T05:10:41;97686.47;;;3.42;99.22
29733;BME280;16643;43.158;25.302;2023-04-06T05:13:06;97656.59;;;3.32;98.35
29733;BME280;16643;43.158;25.302;2023-04-06T05:15:32;97681.22;;;3.53;97.58
29733;BME280;16643;43.158;25.302;2023-04-06T05:18:00;97679.59;;;3.46;98.05
29733;BME280;16643;43.158;25.302;2023-04-06T05:20:26;97687.22;;;3.50;97.85
29733;BME280;16643;43.158;25.302;2023-04-06T05:22:53;97625.03;;;3.19;98.13
29733;BME280;16643;43.158;25.302;2023-04-06T05:25:19;97678.72;;;3.47;96.95
29733;BME280;16643;43.158;25.302;2023-04-06T05:27:44;97658.28;;;3.38;95.79
29733;BME280;16643;43.158;25.302;2023-04-06T05:30:10;97675.28;;;3.48;97.17
29733;BME280;16643;43.158;25.302;2023-04-06T05:32:36;97659.06;;;3.44;96.37
29733;BME280;16643;43.158;25.302;2023-04-06T05:35:02;97666.69;;;3.50;96.38
29733;BME280;16643;43.158;25.302;2023-04-06T05:37:27;97673.47;;;3.57;95.91
29733;BME280;16643;43.158;25.302;2023-04-06T05:39:53;97670.91;;;3.57;96.40
29733;BME280;16643;43.158;25.302;2023-04-06T05:42:19;97653.91;;;3.47;95.78
29733;BME280;16643;43.158;25.302;2023-04-06T05:44:45;97681.94;;;3.70;95.88
29733;BME280;16643;43.158;25.302;2023-04-06T05:47:10;97679.47;;;3.56;95.02
29733;BME280;16643;43.158;25.302;2023-04-06T05:49:36;97686.31;;;3.60;95.38
29733;BME280;16643;43.158;25.302;2023-04-06T05:52:02;97679.38;;;3.67;95.92
29733;BME280;16643;43.158;25.302;2023-04-06T05:54:27;97665.66;;;3.71;95.40
29733;BME280;16643;43.158;25.302;2023-04-06T05:56:53;97644.38;;;3.57;95.29
29733;BME280;16643;43.158;25.302;2023-04-06T05:59:19;97662.13;;;3.78;94.96
29733;BME280;16643;43.158;25.302;2023-04-06T06:01:45;97651.97;;;3.68;96.19
29733;BME280;16643;43.158;25.302;2023-04-06T06:04:11;97663.88;;;3.75;95.62
29733;BME280;16643;43.158;25.302;2023-04-06T06:06:37;97646.72;;;3.78;95.37
29733;BME280;16643;43.158;25.302;2023-04-06T06:09:02;97649.25;;;3.83;95.75
29733;BME280;16643;43.158;25.302;2023-04-06T06:11:29;97644.06;;;3.84;95.43
29733;BME280;16643;43.158;25.302;2023-04-06T06:13:55;97643.13;;;3.93;94.82
29733;BME280;16643;43.158;25.302;2023-04-06T06:16:21;97620.16;;;3.78;94.91
29733;BME280;16643;43.158;25.302;2023-04-06T06:18:47;97637.13;;;3.92;93.41
29733;BME280;16643;43.158;25.302;2023-04-06T06:21:13;97638.84;;;3.92;94.20
29733;BME280;16643;43.158;25.302;2023-04-06T06:23:39;97623.34;;;3.98;94.09
29733;BME280;16643;43.158;25.302;2023-04-06T06:26:04;97657.63;;;3.98;93.73
29733;BME280;16643;43.158;25.302;2023-04-06T06:28:30;97657.63;;;-142.82;92.54
29733;BME280;16643;43.158;25.302;2023-04-06T06:30:56;97642.06;;;4.09;93.69
29733;BME280;16643;43.158;25.302;2023-04-06T06:33:22;97639.47;;;4.11;93.28
29733;BME280;16643;43.158;25.302;2023-04-06T06:35:48;97632.00;;;3.92;91.98
29733;BME280;16643;43.158;25.302;2023-04-06T06:38:14;97620.78;;;3.96;92.22
29733;BME280;16643;43.158;25.302;2023-04-06T06:40:40;97653.28;;;4.04;91.27
29733;BME280;16643;43.158;25.302;2023-04-06T06:43:06;97651.44;;;4.13;91.73
29733;BME280;16643;43.158;25.302;2023-04-06T06:45:33;97644.47;;;4.23;91.57
29733;BME280;16643;43.158;25.302;2023-04-06T06:47:58;97651.41;;;4.16;90.18
29733;BME280;16643;43.158;25.302;2023-04-06T06:50:24;97656.47;;;4.22;90.46
29733;BME280;16643;43.158;25.302;2023-04-06T06:52:50;97647.00;;;4.27;91.40
29733;BME280;16643;43.158;25.302;2023-04-06T06:55:16;97633.28;;;4.25;90.76
29733;BME280;16643;43.158;25.302;2023-04-06T06:57:44;97608.47;;;4.23;90.91
29733;BME280;16643;43.158;25.302;2023-04-06T07:00:12;97633.06;;;4.42;90.02
29733;BME280;16643;43.158;25.302;2023-04-06T07:02:38;97647.56;;;4.49;89.43
29733;BME280;16643;43.158;25.302;2023-04-06T07:05:04;97652.53;;;4.60;90.15
29733;BME280;16643;43.158;25.302;2023-04-06T07:07:32;97647.22;;;4.72;88.09
29733;BME280;16643;43.158;25.302;2023-04-06T07:09:58;97641.31;;;4.64;88.13
29733;BME280;16643;43.158;25.302;2023-04-06T07:12:23;97645.38;;;4.80;89.75
29733;BME280;16643;43.158;25.302;2023-04-06T07:14:49;97623.94;;;4.78;87.57
29733;BME280;16643;43.158;25.302;2023-04-06T07:17:14;97633.25;;;4.87;87.89
29733;BME280;16643;43.158;25.302;2023-04-06T07:19:40;97636.50;;;4.98;88.37
29733;BME280;16643;43.158;25.302;2023-04-06T07:22:06;97638.03;;;5.09;86.66
29733;BME280;16643;43.158;25.302;2023-04-06T07:24:32;97652.59;;;5.12;85.33
29733;BME280;16643;43.158;25.302;2023-04-06T07:26:59;97634.38;;;5.23;87.38
29733;BME280;16643;43.158;25.302;2023-04-06T07:29:26;97652.06;;;5.44;86.83
29733;BME280;16643;43.158;25.302;2023-04-06T07:31:52;97651.09;;;5.51;85.60
29733;BME280;16643;43.158;25.302;2023-04-06T07:34:18;97616.66;;;5.54;84.24
29733;BME280;16643;43.158;25.302;2023-04-06T07:36:44;97614.09;;;5.54;nan
29733;BME280;16643;43.158;25.302;2023-04-06T07:39:10;97629.25;;;5.70;83.20
29733;BME280;16643;43.158;25.302;2023-04-06T07:41:36;97623.28;;;5.67;81.86
29733;BME280;16643;43.158;25.302;2023-04-06T07:44:02;97627.16;;;5.91;83.57
29733;BME280;16643;43.158;25.302;2023-04-06T07:46:27;97621.47;;;6.18;82.28
29733;BME280;16643;43.158;25.302;2023-04-06T07:48:53;97617.25;;;6.14;81.36
29733;BME280;16643;43.158;25.302;2023-04-06T07:51:19;97635.91;;;6.27;81.63
29733;BME280;16643;43.158;25.302;2023-04-06T07:53:45;97642.91;;;6.60;80.07
29733;BME280;16643;43.158;25.302;2023-04-06T07:56:10;97632.88;;;6.46;77.32
29733;BME280;16643;43.158;25.302;2023-04-06T07:58:37;97625.31;;;6.39;79.75
29733;BME280;16643;43.158;25.302;2023-04-06T08:01:03;97630.34;;;6.43;79.53
29733;BME280;16643;43.158;25.302;2023-04-06T08:03:29;97630.19;;;6.52;78.60
29733;BME280;16643;43.158;25.302;2023-04-06T08:05:54;97638.59;;;6.61;79.01
29733;BME280;16643;43.158;25.302;2023-04-06T08:08:20;97662.75;;;6.58;80.10
29733;BME280;16643;43.158;25.302;2023-04-06T08:10:48;97653.22;;;6.62;77.61
29733;BME280;16643;43.158;25.302;2023-04-06T08:13:14;97650.69;;;6.59;78.49
29733;BME280;16643;43.158;25.302;2023-04-06T08:15:40;97642.97;;;6.57;78.84
29733;BME280;16643;43.158;25.302;2023-04-06T08:18:06;97616.47;;;6.50;78.91
29733;BME280;16643;43.158;25.302;2023-04-06T08:20:31;97652.56;;;6.52;78.51
29733;BME280;16643;43.158;25.302;2023-04-06T08:22:57;97623.25;;;6.54;79.66
29733;BME280;16643;43.158;25.302;2023-04-06T08:25:23;97635.09;;;6.65;78.86
29733;BME280;16643;43.158;25.302;2023-04-06T08:27:48;97639.75;;;6.47;78.05
29733;BME280;16643;43.158;25.302;2023-04-06T08:30:14;97623.59;;;6.39;78.99
29733;BME280;16643;43.158;25.302;2023-04-06T08:32:44;97651.06;;;6.42;77.29
29733;BME280;16643;43.158;25.302;2023-04-06T08:35:11;97629.00;;;6.27;77.20
29733;BME280;16643;43.158;25.302;2023-04-06T08:37:37;97641.69;;;6.38;79.53
29733;BME280;16643;43.158;25.302;2023-04-06T08:40:03;97667.22;;;6.50;77.48
29733;BME280;16643;43.158;25.302;2023-04-06T08:42:32;97629.41;;;6.49;77.16
29733;BME280;16643;43.158;25.302;2023-04-06T08:44:58;97637.97;;;6.51;79.06
29733;BME280;16643;43.158;25.302;2023-04-06T08:47:24;97623.13;;;6.59;79.20
29733;BME280;16643;43.158;25.302;2023-04-06T08:49:50;97649.88;;;6.56;78.00
29733;BME280;16643;43.158;25.302;2023-04-06T08:52:18;97607.94;;;6.47;78.35
29733;BME280;16643;43.158;25.302;2023-04-06T08:54:44;97630.84;;;6.61;77.04
29733;BME280;16643;43.158;25.302;2023-04-06T08:57:10;97649.38;;;6.78;77.96
29733;BME280;16643;43.158;25.302;2023-04-06T08:59:37;97623.13;;;6.61;76.13
29733;BME280;16643;43.158;25.302;2023-04-06T09:02:04;97640.91;;;6.73;76.59
29733;BME280;16643;43.158;25.302;2023-04-06T09:04:35;97640.03;;;6.74;77.13
29733;BME280;16643;43.158;25.302;2023-04-06T09:07:01;97627.19;;;6.71;77.44
29733;BME280;16643;43.158;25.302;2023-04-06T09:09:27;97637.22;;;6.83;76.05
29733;BME280;16643;43.158;25.302;2023-04-06T09:11:53;97649.28;;;6.82;74.87
29733;BME280;16643;43.158;25.302;2023-04-06T09:14:34;97640.38;;;6.96;76.34
29733;BME280;16643;43.158;25.302;2023-04-06T09:17:01;97625.91;;;6.88;75.77
29733;BME280;16643;43.158;25.302;2023-04-06T09:19:26;97641.09;;;7.01;77.74
29733;BME280;16643;43.158;25.302;2023-04-06T09:22:05;97630.44;;;7.14;75.38
29733;BME280;16643;43.158;25.302;2023-04-06T09:24:51;97645.97;;;7.13;74.84
29733;BME280;16643;43.158;25.302;2023-04-06T09:27:18;97633.91;;;7.13;75.86
29733;BME280;16643;43.158;25.302;2023-04-06T09:29:44;97637.31;;;7.15;74.64
29733;BME280;16643;43.158;25.302;2023-04-06T09:32:11;97630.34;;;7.19;75.16
29733;BME280;16643;43.158;25.302;2023-04-06T09:34:40;97581.69;;;7.01;74.37
29733;BME280;16643;43.158;25.302;2023-04-06T09:37:13;97623.47;;;7.18;74.72
29733;BME280;16643;43.158;25.302;2023-04-06T09:39:39;97615.56;;;7.24;73.73
29733;BME280;16643;43.158;25.302;2023-04-06T09:42:04;97600.75;;;7.31;73.52
29733;BME280;16643;43.158;25.302;2023-04-06T09:44:30;97600.03;;;7.25;71.70
29733;BME280;16643;43.158;25.302;2023-04-06T09:46:56;97593.81;;;7.33;73.92
29733;BME280;16643;43.158;25.302;2023-04-06T09:49:22;97579.38;;;7.56;74.49
29733;BME280;16643;43.158;25.302;2023-04-06T09:51:55;97608.22;;;7.74;74.00
29733;BME280;16643;43.158;25.302;2023-04-06T09:54:22;97599.63;;;7.73;72.39
29733;BME280;16643;43.158;25.302;2023-04-06T10:02:32;97596.81;;;7.81;72.48
29733;BME280;16643;43.158;25.302;2023-04-06T10:05:05;97596.47;;;7.93;72.68
29733;BME280;16643;43.158;25.302;2023-04-06T10:07:32;97596.59;;;7.90;70.88
29733;BME280;16643;43.158;25.302;2023-04-06T10:09:59;97604.09;;;7.99;71.55
29733;BME280;16643;43.158;25.302;2023-04-06T10:12:26;97585.88;;;8.02;73.83
29733;BME280;16643;43.158;25.302;2023-04-06T10:14:51;97578.38;;;7.93;69.96
29733;BME280;16643;43.158;25.302;2023-04-06T10:17:17;97609.50;;;8.21;71.49
29733;BME280;16643;43.158;25.302;2023-04-06T10:19:54;97582.97;;;8.13;68.84
29733;BME280;16643;43.158;25.302;2023-04-06T10:22:32;97582.81;;;8.19;71.21
29733;BME280;16643;43.158;25.302;2023-04-06T10:25:00;97604.88;;;8.32;70.93
29733;BME280;16643;43.158;25.302;2023-04-06T10:27:30;97595.72;;;8.50;71.49
29733;BME280;16643;43.158;25.302;2023-04-06T10:30:06;97600.19;;;8.45;68.11
29733;BME280;16643;43.158;25.302;2023-04-06T10:32:36;97592.06;;;8.57;72.86
29733;BME280;16643;43.158;25.302;2023-04-06T10:35:06;97608.19;;;8.65;67.32
29733;BME280;16643;43.158;25.302;2023-04-06T10:38:06;97587.94;;;8.78;68.96
29733;BME280;16643;43.158;25.302;2023-04-06T10:40:31;97586.00;;;8.84;70.73
29733;BME280;16643;43.158;25.302;2023-04-06T10:43:10;97600.84;;;9.05;67.09
29733;BME280;16643;43.158;25.302;2023-04-06T10:45:37;97594.69;;;9.09;66.47
29733;BME280;16643;43.158;25.302;2023-04-06T10:48:17;97608.28;;;9.16;65.15
29733;BME280;16643;43.158;25.302;2023-04-06T10:50:44;97590.34;;;9.10;63.56
29733;BME280;16643;43.158;25.302;2023-04-06T10:53:10;97592.09;;;9.09;65.15
29733;BME280;16643;43.158;25.302;2023-04-06T10:55:39;97597.13;;;9.14;62.76
29733;BME280;16643;43.158;25.302;2023-04-06T10:58:07;97606.66;;;9.14;64.04
29733;BME280;16643;43.158;25.302;2023-04-06T11:00:34;97566.53;;;8.99;63.87
29733;BME280;16643;43.158;25.302;2023-04-06T11:03:00;97574.53;;;9.18;64.24
29733;BME280;16643;43.158;25.302;2023-04-06T11:05:27;97577.03;;;9.21;65.62
29733;BME280;16643;43.158;25.302;2023-04-06T11:07:53;97572.88;;;9.15;63.50
29733;BME280;16643;43.158;25.302;2023-04-06T11:10:22;97592.31;;;9.28;62.85
29733;BME280;16643;43.158;25.302;2023-04-06T11:12:53;97591.31;;;9.32;63.20
29733;BME280;16643;43.158;25.302;2023-04-06T11:15:19;97558.78;;;9.24;62.52
29733;BME280;16643;43.158;25.302;2023-04-06T11:17:44;97573.19;;;9.32;62.14
29733;BME280;16643;43.158;25.302;2023-04-06T11:20:11;97554.59;;;9.20;62.00
29733;BME280;16643;43.158;25.302;2023-04-06T11:22:48;97561.38;;;9.24;64.19
29733;BME280;16643;43.158;25.302;2023-04-06T11:25:14;97580.88;;;9.35;63.48
29733;BME280;16643;43.158;25.302;2023-04-06T11:27:42;97563.84;;;9.52;63.48
29733;BME280;16643;43.158;25.302;2023-04-06T11:30:09;97548.66;;;9.66;64.63
29733;BME280;16643;43.158;25.302;2023-04-06T11:32:45;97544.13;;;9.71;65.70
29733;BME280;16643;43.158;25.302;2023-04-06T11:35:21;97558.03;;;9.93;61.96
29733;BME280;16643;43.158;25.302;2023-04-06T11:37:51;97557.25;;;9.68;65.05
29733;BME280;16643;43.158;25.302;2023-04-06T11:40:22;97542.16;;;9.29;65.23
29733;BME280;16643;43.158;25.302;2023-04-06T11:42:54;97532.44;;;9.36;66.72
29733;BME280;16643;43.158;25.302;2023-04-06T11:45:20;97538.44;;;9.61;65.73
29733;BME280;16643;43.158;25.302;2023-04-06T11:47:55;97559.22;;;9.84;65.80
29733;BME280;16643;43.158;25.302;2023-04-06T11:50:21;97553.00;;;9.65;62.40
29733;BME280;16643;43.158;25.302;2023-04-06T11:52:58;97535.34;;;9.75;63.70
29733;BME280;16643;43.158;25.302;2023-04-06T11:55:25;97554.63;;;9.93;66.68
29733;BME280;16643;43.158;25.302;2023-04-06T11:57:51;97525.81;;;9.99;63.23
29733;BME280;16643;43.158;25.302;2023-04-06T12:00:17;97573.16;;;10.29;65.56
29733;BME280;16643;43.158;25.302;2023-04-06T12:02:47;97538.41;;;10.33;61.76
29733;BME280;16643;43.158;25.302;2023-04-06T12:05:13;97539.78;;;10.41;60.73
29733;BME280;16643;43.158;25.302;2023-04-06T12:07:38;97543.56;;;10.56;62.74
29733;BME280;16643;43.158;25.302;2023-04-06T12:10:04;97537.63;;;10.52;58.06
29733;BME280;16643;43.158;25.302;2023-04-06T12:12:30;97538.28;;;10.36;57.94
29733;BME280;16643;43.158;25.302;2023-04-06T12:14:57;97542.81;;;10.52;58.91
29733;BME280;16643;43.158;25.302;2023-04-06T12:17:23;97518.16;;;10.41;58.50
29733;BME280;16643;43.158;25.302;2023-04-06T12:19:48;97545.84;;;10.42;58.19
29733;BME280;16643;43.158;25.302;2023-04-06T12:22:14;97544.75;;;10.47;55.78
29733;BME280;16643;43.158;25.302;2023-04-06T12:24:40;97536.22;;;10.44;55.71
29733;BME280;16643;43.158;25.302;2023-04-06T12:27:06;97519.56;;;10.49;55.92
29733;BME280;16643;43.158;25.302;2023-04-06T12:29:32;97541.44;;;10.66;56.58
29733;BME280;16643;43.158;25.302;2023-04-06T12:31:58;97522.16;;;10.71;56.17
29733;BME280;16643;43.158;25.302;2023-04-06T12:34:23;97516.31;;;10.86;57.23
29733;BME280;16643;43.158;25.302;2023-04-06T12:36:49;97526.53;;;10.91;57.24
29733;BME280;16643;43.158;25.302;2023-04-06T12:39:15;97541.63;;;11.03;55.92
29733;BME280;16643;43.158;25.302;2023-04-06T12:41:42;97515.28;;;10.90;53.39
29733;BME280;16643;43.158;25.302;2023-04-06T12:44:07;97510.09;;;10.90;54.71
29733;BME280;16643;43.158;25.302;2023-04-06T12:46:33;97492.75;;;10.91;54.40
29733;BME280;16643;43.158;25.302;2023-04-06T12:48:59;97510.94;;;11.11;54.33
29733;BME280;16643;43.158;25.302;2023-04-06T12:51:27;97520.78;;;11.25;54.83
29733;BME280;16643;43.158;25.302;2023-04-06T12:53:53;97509.53;;;11.24;52.84
29733;BME280;16643;43.158;25.302;2023-04-06T12:56:19;97523.06;;;11.12;51.03
29733;BME280;16643;43.158;25.302;2023-04-06T12:58:46;97509.81;;;10.97;51.56
29733;BME280;16643;43.158;25.302;2023-04-06T13:01:13;97496.97;;;10.94;53.60